Search for airport 
image banner adimage banner adimage banner ad
image banner ad

KALO - Waterloo Rgnl

Located in Waterloo, United States

ICAO - ALO, IATA - ALO

Data provided by Airmate  

General information

Coordinates: N42°33'25" W92°24'1"
Elevation is 873 feet MSL.
Magnetic variation is 00° East
View others Airports in Iowa

Operational data

Special qualification required
Current time UTC:
Current local time:
Weather
METAR: KALO 150954Z AUTO 31004KT 10SM CLR 13/11 A3009 RMK AO2 SLP183 T01330106
TAF: KALO 150520Z 1506/1606 35003KT P6SM SKC
View NOTAMs / SUP AIP / TFR affecting this airport [VIEW]
Communications frequencies: [VIEW]

Runways:

RWY identifierQFULength (ft)Width (ft)SurfaceLDA (ft)
0668°5400130ASPH5400
24248°5400130ASPH5400
12128°8399150ASPH8399
30308°8399150ASPH8399
18188°6003150OTHER6003
366003150OTHER6003

Airport contact information

Address: Waterloo United States

Other aviation service providers

Flight schools

Livingston Aviation, Inc

Livingston Aviation, Inc

Satellite view of KALO